createdAt,value
2023-02-17T00:01:16.210Z,86.70
2023-02-17T00:03:52.202Z,76.70
2023-02-17T00:06:27.612Z,72.32
2023-02-17T00:09:01.954Z,79.47
2023-02-17T00:11:35.728Z,66.28
2023-02-17T00:14:12.918Z,76.78
2023-02-17T00:16:47.120Z,73.47
2023-02-17T00:22:00.910Z,74.30
2023-02-17T00:24:35.218Z,73.25
2023-02-17T00:27:08.477Z,69.13
2023-02-17T00:29:41.608Z,88.18
2023-02-17T00:32:15.035Z,87.30
2023-02-17T00:34:49.678Z,74.75
2023-02-17T00:37:23.088Z,72.45
2023-02-17T00:39:57.035Z,75.30
2023-02-17T00:42:30.461Z,58.63
2023-02-17T00:45:03.773Z,67.38
2023-02-17T00:47:37.126Z,66.03
2023-02-17T00:50:12.163Z,71.65
2023-02-17T00:52:45.272Z,78.53
2023-02-17T00:55:18.839Z,81.63
2023-02-17T00:57:52.426Z,66.97
2023-02-17T01:00:25.939Z,66.43
2023-02-17T01:02:59.066Z,71.25
2023-02-17T01:05:34.220Z,73.07
2023-02-17T01:08:07.338Z,63.75
2023-02-17T01:10:41.840Z,65.90
2023-02-17T01:13:16.817Z,60.40
2023-02-17T01:15:53.035Z,68.07
2023-02-17T01:18:26.826Z,69.78
2023-02-17T01:21:01.826Z,69.38
2023-02-17T01:23:35.505Z,68.72
2023-02-17T01:26:08.729Z,68.32
2023-02-17T01:28:42.400Z,62.95
2023-02-17T01:31:16.704Z,59.83
2023-02-17T01:33:50.419Z,62.17
2023-02-17T01:36:25.602Z,58.63
2023-02-17T01:38:58.907Z,68.43
2023-02-17T01:41:32.222Z,61.63
2023-02-17T01:44:15.400Z,54.90
2023-02-17T01:46:51.793Z,57.75
2023-02-17T01:49:31.511Z,57.90
2023-02-17T01:52:11.482Z,55.25
2023-02-17T01:54:48.372Z,58.65
2023-02-17T01:57:25.526Z,53.55
2023-02-17T01:59:59.512Z,53.63
2023-02-17T02:02:33.691Z,57.22
2023-02-17T02:05:07.366Z,58.35
2023-02-17T02:07:45.022Z,56.80
2023-02-17T02:10:19.721Z,59.00
2023-02-17T02:12:54.378Z,64.43
2023-02-17T02:18:17.442Z,66.32
2023-02-17T02:21:24.773Z,57.38
2023-02-17T02:24:14.486Z,57.28
2023-02-17T02:27:11.823Z,59.65
2023-02-17T02:30:30.304Z,64.53
2023-02-17T02:33:13.069Z,62.92
2023-02-17T02:35:55.323Z,63.35
2023-02-17T02:38:32.622Z,67.28
2023-02-17T02:41:12.588Z,68.30
2023-02-17T02:43:45.948Z,63.95
2023-02-17T02:46:19.346Z,53.80
2023-02-17T02:48:54.842Z,58.92
2023-02-17T02:51:37.851Z,68.25
2023-02-17T02:54:33.378Z,55.00
2023-02-17T02:57:26.095Z,63.63
2023-02-17T03:00:14.561Z,57.80
2023-02-17T03:02:52.688Z,60.58
2023-02-17T03:05:39.208Z,59.80
2023-02-17T03:08:16.938Z,56.78
2023-02-17T03:10:53.884Z,62.30
2023-02-17T03:13:28.217Z,59.72
2023-02-17T03:16:01.934Z,61.30
2023-02-17T03:18:36.005Z,60.65
2023-02-17T03:21:17.230Z,69.25
2023-02-17T03:23:50.643Z,62.35
2023-02-17T03:26:24.102Z,62.63
2023-02-17T03:28:57.319Z,71.70
2023-02-17T03:31:31.182Z,57.35
2023-02-17T03:34:05.239Z,61.80
2023-02-17T03:36:40.341Z,57.78
2023-02-17T03:39:13.656Z,61.63
2023-02-17T03:41:48.228Z,74.00
2023-02-17T03:44:21.653Z,61.50
2023-02-17T03:46:54.874Z,72.55
2023-02-17T03:49:28.206Z,65.65
2023-02-17T03:52:03.015Z,60.33
2023-02-17T03:54:36.970Z,56.92
2023-02-17T03:57:10.546Z,59.35
2023-02-17T03:59:43.818Z,66.13
2023-02-17T04:02:17.188Z,64.00
2023-02-17T04:04:50.389Z,66.13
2023-02-17T04:07:24.974Z,61.72
2023-02-17T04:09:58.462Z,61.67
2023-02-17T04:12:33.491Z,59.40
2023-02-17T04:15:08.833Z,58.63
2023-02-17T04:17:42.605Z,67.88
2023-02-17T04:20:15.986Z,65.85
2023-02-17T04:22:50.518Z,65.32
2023-02-17T04:25:24.356Z,69.82
2023-02-17T04:27:57.891Z,58.45
2023-02-17T04:30:31.551Z,58.50
2023-02-17T04:33:06.499Z,60.15
2023-02-17T04:35:39.986Z,58.88
2023-02-17T04:38:14.613Z,58.63
2023-02-17T04:40:48.326Z,55.47
2023-02-17T04:43:22.111Z,48.70
2023-02-17T04:48:29.384Z,47.13
2023-02-17T04:51:02.498Z,64.80
2023-02-17T04:53:37.504Z,65.47
2023-02-17T04:56:11.659Z,75.95
2023-02-17T04:58:45.244Z,73.95
2023-02-17T05:01:18.762Z,69.65
2023-02-17T05:03:52.097Z,80.13
2023-02-17T05:06:25.280Z,76.88
2023-02-17T05:11:33.656Z,80.30
2023-02-17T05:14:07.886Z,85.90
2023-02-17T05:16:42.374Z,80.28
2023-02-17T05:19:15.934Z,89.13
2023-02-17T05:21:49.132Z,88.45
2023-02-17T05:24:23.844Z,171.27
2023-02-17T05:26:57.183Z,156.50
2023-02-17T05:29:30.616Z,105.35
2023-02-17T05:32:04.251Z,116.18
2023-02-17T05:34:37.787Z,111.28
2023-02-17T05:37:11.297Z,112.93
2023-02-17T05:39:46.224Z,97.32
2023-02-17T05:42:19.714Z,107.38
2023-02-17T05:44:53.099Z,105.80
2023-02-17T05:47:27.688Z,104.07
2023-02-17T05:50:01.275Z,105.47
2023-02-17T05:52:34.425Z,102.10
2023-02-17T05:55:09.808Z,97.35
2023-02-17T05:57:43.160Z,101.07
2023-02-17T06:00:17.720Z,105.07
2023-02-17T06:02:51.413Z,99.38
2023-02-17T06:05:25.174Z,103.50
2023-02-17T06:07:58.684Z,130.43
2023-02-17T06:10:33.503Z,112.60
2023-02-17T06:13:06.725Z,125.18
2023-02-17T06:15:39.931Z,142.27
2023-02-17T06:18:13.535Z,142.55
2023-02-17T06:23:20.369Z,126.55
2023-02-17T06:25:55.413Z,103.93
2023-02-17T06:28:29.020Z,88.90
2023-02-17T06:31:02.654Z,102.95
2023-02-17T06:33:36.359Z,106.78
2023-02-17T06:36:10.364Z,110.30
2023-02-17T06:38:44.205Z,115.35
2023-02-17T06:41:18.927Z,100.68
2023-02-17T06:43:52.195Z,110.57
2023-02-17T06:46:25.634Z,137.70
2023-02-17T06:49:00.131Z,136.02
2023-02-17T06:51:33.661Z,126.90
2023-02-17T06:54:07.224Z,147.50
2023-02-17T06:56:41.984Z,147.63
2023-02-17T06:59:15.502Z,138.48
2023-02-17T07:01:49.897Z,169.60
2023-02-17T07:04:23.218Z,139.07
2023-02-17T07:06:56.609Z,147.30
2023-02-17T07:09:30.835Z,125.88
2023-02-17T07:12:06.792Z,147.23
2023-02-17T07:14:40.804Z,144.32
2023-02-17T07:17:14.264Z,152.30
2023-02-17T07:19:47.869Z,146.95
2023-02-17T07:22:21.636Z,133.63
2023-02-17T07:27:29.860Z,145.88
2023-02-17T07:30:03.566Z,135.40
2023-02-17T07:32:36.982Z,133.90
2023-02-17T07:35:10.650Z,131.98
2023-02-17T07:37:43.981Z,130.65
2023-02-17T07:40:17.592Z,154.88
2023-02-17T07:42:52.870Z,143.20
2023-02-17T07:45:26.103Z,85.50
2023-02-17T07:47:59.482Z,91.32
2023-02-17T07:50:33.120Z,87.63
2023-02-17T07:53:06.394Z,78.75
2023-02-17T07:55:39.716Z,79.13
2023-02-17T07:58:14.428Z,79.28
2023-02-17T08:00:47.865Z,75.82
2023-02-17T08:03:21.407Z,75.53
2023-02-17T08:05:54.837Z,70.30
2023-02-17T08:08:45.697Z,72.95
2023-02-17T08:11:36.768Z,74.50
2023-02-17T08:14:13.184Z,67.80
2023-02-17T08:16:47.216Z,73.35
2023-02-17T08:19:20.790Z,64.70
2023-02-17T08:21:54.569Z,78.07
2023-02-17T08:24:28.267Z,70.30
2023-02-17T08:27:01.731Z,64.93
2023-02-17T08:29:36.520Z,74.85
2023-02-17T08:32:10.120Z,72.40
2023-02-17T08:37:16.945Z,74.05
2023-02-17T08:39:50.309Z,70.55
2023-02-17T08:42:24.162Z,69.57
2023-02-17T08:44:59.122Z,65.13
2023-02-17T08:47:32.537Z,69.72
2023-02-17T08:50:09.384Z,68.85
2023-02-17T08:52:42.962Z,77.07
2023-02-17T08:55:18.471Z,71.45
2023-02-17T08:57:52.061Z,76.47
2023-02-17T09:00:26.869Z,75.93
2023-02-17T09:03:00.655Z,74.65
2023-02-17T09:05:35.260Z,64.72
2023-02-17T09:08:09.168Z,66.22
2023-02-17T09:10:47.748Z,58.40
2023-02-17T09:13:22.099Z,55.28
2023-02-17T09:18:30.802Z,44.75
2023-02-17T09:21:07.599Z,49.78
2023-02-17T09:23:41.909Z,46.40
2023-02-17T09:26:17.352Z,52.67
2023-02-17T09:28:51.173Z,49.63
2023-02-17T09:31:30.941Z,51.63
2023-02-17T09:34:05.685Z,42.13
2023-02-17T09:36:41.206Z,45.83
2023-02-17T09:39:15.008Z,46.72
2023-02-17T09:41:52.141Z,47.50
2023-02-17T09:44:27.685Z,46.95
2023-02-17T09:47:08.641Z,40.78
2023-02-17T09:49:46.762Z,43.22
2023-02-17T09:52:28.201Z,43.97
2023-02-17T09:55:06.624Z,47.25
2023-02-17T09:57:50.418Z,49.33
2023-02-17T10:00:27.160Z,31.35
2023-02-17T10:03:07.634Z,30.38
2023-02-17T10:05:46.906Z,22.10
2023-02-17T10:08:26.877Z,25.63
2023-02-17T10:11:05.758Z,24.50
2023-02-17T10:13:42.244Z,23.40
2023-02-17T10:16:23.047Z,22.00
2023-02-17T10:19:03.469Z,19.17
2023-02-17T10:21:41.017Z,18.92
2023-02-17T10:24:14.668Z,23.15
2023-02-17T10:26:58.657Z,18.90
2023-02-17T10:29:40.392Z,17.52
2023-02-17T10:32:23.073Z,18.42
2023-02-17T10:35:14.575Z,36.63
2023-02-17T10:37:49.819Z,16.05
2023-02-17T10:40:25.520Z,15.60
2023-02-17T10:43:02.284Z,13.80
2023-02-17T10:45:39.337Z,16.73
2023-02-17T10:48:15.605Z,14.43
2023-02-17T10:50:51.332Z,14.23
2023-02-17T10:53:29.771Z,16.42
2023-02-17T10:56:09.371Z,19.08
2023-02-17T10:58:51.491Z,17.15
2023-02-17T11:01:24.945Z,18.70
2023-02-17T11:04:03.632Z,16.38
2023-02-17T11:06:44.415Z,16.83
2023-02-17T11:09:21.865Z,17.45
2023-02-17T11:12:01.185Z,20.35
2023-02-17T11:14:38.001Z,18.48
2023-02-17T11:17:17.922Z,21.48
2023-02-17T11:19:59.807Z,24.35
2023-02-17T11:22:38.760Z,34.78
2023-02-17T11:25:23.452Z,18.58
2023-02-17T11:27:58.641Z,13.32
2023-02-17T11:30:33.608Z,17.27
2023-02-17T11:33:14.623Z,15.52
2023-02-17T11:35:52.139Z,17.75
2023-02-17T11:38:28.600Z,22.02
2023-02-17T11:41:04.730Z,19.27
2023-02-17T11:43:39.322Z,14.60
2023-02-17T11:46:22.616Z,20.52
2023-02-17T11:49:08.042Z,17.33
2023-02-17T11:51:55.004Z,15.88
2023-02-17T11:54:50.034Z,17.58
2023-02-17T11:57:37.749Z,17.05
2023-02-17T12:00:19.255Z,14.88
2023-02-17T12:03:11.088Z,18.02
2023-02-17T12:05:57.313Z,11.57
2023-02-17T12:08:39.443Z,16.02
2023-02-17T12:11:21.604Z,14.68
2023-02-17T12:14:10.835Z,17.27
2023-02-17T12:16:52.796Z,16.73
2023-02-17T12:19:47.258Z,27.33
2023-02-17T12:22:31.941Z,28.70
2023-02-17T12:25:24.117Z,21.73
2023-02-17T12:28:11.659Z,21.60
2023-02-17T12:30:59.415Z,16.02
2023-02-17T12:33:47.880Z,30.40
2023-02-17T12:36:22.225Z,32.42
2023-02-17T12:39:00.064Z,17.40
2023-02-17T12:41:37.536Z,25.35
2023-02-17T12:44:16.957Z,11.48
2023-02-17T12:46:53.978Z,15.98
2023-02-17T12:49:35.766Z,13.38
2023-02-17T12:52:15.546Z,9.55
2023-02-17T12:54:53.831Z,18.48
2023-02-17T12:57:45.818Z,14.05
2023-02-17T13:00:23.814Z,13.93
2023-02-17T13:02:59.791Z,12.75
2023-02-17T13:05:38.892Z,18.35
2023-02-17T13:08:17.480Z,18.38
2023-02-17T13:11:02.011Z,13.57
2023-02-17T13:13:36.774Z,12.95
2023-02-17T13:16:14.591Z,15.55
2023-02-17T13:18:50.744Z,15.70
2023-02-17T13:21:33.123Z,21.42
2023-02-17T13:24:14.054Z,14.95
2023-02-17T13:26:47.608Z,15.45
2023-02-17T13:29:34.441Z,20.95
2023-02-17T13:32:13.515Z,12.75
2023-02-17T13:34:47.558Z,18.10
2023-02-17T13:37:28.314Z,13.15
2023-02-17T13:40:02.444Z,23.10
2023-02-17T13:42:39.664Z,14.48
2023-02-17T13:45:19.017Z,15.20
2023-02-17T13:47:55.894Z,15.32
2023-02-17T13:50:33.010Z,12.00
2023-02-17T13:53:22.865Z,12.20
2023-02-17T13:55:59.987Z,11.32
2023-02-17T13:58:37.309Z,20.05
2023-02-17T14:01:18.891Z,18.55
2023-02-17T14:03:56.216Z,11.50
2023-02-17T14:06:33.666Z,10.45
2023-02-17T14:09:14.928Z,12.77
2023-02-17T14:11:53.187Z,13.75
2023-02-17T14:14:31.128Z,15.77
2023-02-17T14:17:07.458Z,9.88
2023-02-17T14:19:47.318Z,6.53
2023-02-17T14:22:28.943Z,9.35
2023-02-17T14:25:05.214Z,8.82
2023-02-17T14:27:45.834Z,9.35
2023-02-17T14:30:29.994Z,8.45
2023-02-17T14:33:06.554Z,10.40
2023-02-17T14:35:52.029Z,5.93
2023-02-17T14:38:27.697Z,10.60
2023-02-17T14:41:01.389Z,11.43
2023-02-17T14:43:34.658Z,8.23
2023-02-17T14:46:08.190Z,10.13
2023-02-17T14:48:42.065Z,6.70
2023-02-17T14:51:19.783Z,7.10
2023-02-17T14:53:53.749Z,5.65
2023-02-17T14:56:31.107Z,7.25
2023-02-17T14:59:05.064Z,10.13
2023-02-17T15:04:12.046Z,14.50
2023-02-17T15:06:49.434Z,9.00
2023-02-17T15:09:29.522Z,9.02
2023-02-17T15:12:06.904Z,15.00
2023-02-17T15:14:41.116Z,14.73
2023-02-17T15:17:15.229Z,11.95
2023-02-17T15:22:24.532Z,9.55
2023-02-17T15:24:57.859Z,14.02
2023-02-17T15:27:31.377Z,13.77
2023-02-17T15:30:05.344Z,23.05
2023-02-17T15:32:39.055Z,26.40
2023-02-17T15:35:18.617Z,30.67
2023-02-17T15:37:53.510Z,26.42
2023-02-17T15:40:28.759Z,25.55
2023-02-17T15:43:03.496Z,27.08
2023-02-17T15:45:36.790Z,19.38
2023-02-17T15:50:47.454Z,29.17
2023-02-17T15:53:22.830Z,39.60
2023-02-17T15:55:56.459Z,35.80
2023-02-17T15:58:31.540Z,37.30
2023-02-17T16:01:05.046Z,34.83
2023-02-17T16:03:39.396Z,31.40
2023-02-17T16:06:12.625Z,26.17
2023-02-17T16:08:47.640Z,29.08
2023-02-17T16:11:23.612Z,28.52
2023-02-17T16:13:57.741Z,29.67
2023-02-17T16:19:06.960Z,25.45
2023-02-17T16:21:40.049Z,31.97
2023-02-17T16:24:14.930Z,31.55
2023-02-17T16:26:48.913Z,29.48
2023-02-17T16:29:23.100Z,33.13
2023-02-17T16:34:32.370Z,39.42
2023-02-17T16:37:13.649Z,25.42
2023-02-17T16:39:48.649Z,31.30
2023-02-17T16:42:21.843Z,26.05
2023-02-17T16:44:55.053Z,31.48
2023-02-17T16:47:29.872Z,31.15
2023-02-17T16:50:03.943Z,25.10
2023-02-17T16:52:37.449Z,43.67
2023-02-17T16:55:18.017Z,61.90
2023-02-17T16:57:52.202Z,43.95
2023-02-17T17:00:29.739Z,55.88
2023-02-17T17:03:03.140Z,47.42
2023-02-17T17:05:37.116Z,54.88
2023-02-17T17:08:12.759Z,50.38
2023-02-17T17:10:49.439Z,49.55
2023-02-17T17:13:23.500Z,52.03
2023-02-17T17:15:57.179Z,45.95
2023-02-17T17:18:30.939Z,45.05
2023-02-17T17:21:04.636Z,54.88
2023-02-17T17:23:38.053Z,55.08
2023-02-17T17:26:21.362Z,62.40
2023-02-17T17:28:55.762Z,59.17
2023-02-17T17:31:30.174Z,61.13
2023-02-17T17:34:03.861Z,60.05
2023-02-17T17:36:41.523Z,64.35
2023-02-17T17:39:17.406Z,67.95
2023-02-17T17:41:53.452Z,70.10
2023-02-17T17:44:28.158Z,65.85
2023-02-17T17:47:01.633Z,61.42
2023-02-17T17:49:34.783Z,67.43
2023-02-17T17:52:07.969Z,64.15
2023-02-17T17:54:41.548Z,68.53
2023-02-17T17:57:16.094Z,82.63
2023-02-17T17:59:49.778Z,92.75
2023-02-17T18:04:56.401Z,111.03
2023-02-17T18:07:29.934Z,108.82
2023-02-17T18:10:04.725Z,135.18
2023-02-17T18:12:41.914Z,133.85
2023-02-17T18:15:16.759Z,125.13
2023-02-17T18:17:50.817Z,144.00
2023-02-17T18:20:24.318Z,138.25
2023-02-17T18:22:57.504Z,137.23
2023-02-17T18:25:31.156Z,134.07
2023-02-17T18:28:05.892Z,135.23
2023-02-17T18:30:39.247Z,142.98
2023-02-17T18:33:14.536Z,159.73
2023-02-17T18:35:48.013Z,164.80
2023-02-17T18:38:21.581Z,163.63
2023-02-17T18:40:54.853Z,155.23
2023-02-17T18:43:29.516Z,144.55
2023-02-17T18:46:09.736Z,155.57
2023-02-17T18:48:43.621Z,132.77
2023-02-17T18:51:23.138Z,154.13
2023-02-17T18:53:58.597Z,146.55
2023-02-17T18:56:33.971Z,142.32
2023-02-17T18:59:08.849Z,131.52
2023-02-17T19:01:43.469Z,132.57
2023-02-17T19:04:16.750Z,136.88
2023-02-17T19:06:50.088Z,141.38
2023-02-17T19:09:23.849Z,140.13
2023-02-17T19:11:57.979Z,129.98
2023-02-17T19:14:34.168Z,123.28
2023-02-17T19:17:08.563Z,120.07
2023-02-17T19:19:42.921Z,112.05
2023-02-17T19:22:16.506Z,104.72
2023-02-17T19:24:52.557Z,115.78
2023-02-17T19:27:25.767Z,106.53
2023-02-17T19:30:00.924Z,104.00
2023-02-17T19:32:34.692Z,92.13
2023-02-17T19:35:11.511Z,100.80
2023-02-17T19:37:45.025Z,98.32
2023-02-17T19:40:18.786Z,97.22
2023-02-17T19:42:52.183Z,98.85
2023-02-17T19:45:27.206Z,96.63
2023-02-17T19:48:00.500Z,103.93
2023-02-17T19:50:34.112Z,108.88
2023-02-17T19:53:07.592Z,116.78
2023-02-17T19:55:41.017Z,129.93
2023-02-17T19:58:14.281Z,127.40
2023-02-17T20:00:49.261Z,120.10
2023-02-17T20:03:22.685Z,120.75
2023-02-17T20:05:55.899Z,131.25
2023-02-17T20:08:29.408Z,134.45
2023-02-17T20:11:07.782Z,130.15
2023-02-17T20:13:46.230Z,124.07
2023-02-17T20:16:22.238Z,120.82
2023-02-17T20:18:56.279Z,119.18
2023-02-17T20:21:32.541Z,111.63
2023-02-17T20:24:06.387Z,108.00
2023-02-17T20:29:15.115Z,113.72
2023-02-17T20:31:50.224Z,111.43
2023-02-17T20:34:29.505Z,125.55
2023-02-17T20:37:03.537Z,120.57
2023-02-17T20:39:39.044Z,134.20
2023-02-17T20:42:12.950Z,136.35
2023-02-17T20:44:48.847Z,132.40
2023-02-17T20:47:23.453Z,137.25
2023-02-17T20:49:56.657Z,135.82
2023-02-17T20:52:29.826Z,123.90
2023-02-17T20:55:03.367Z,126.47
2023-02-17T20:57:37.169Z,140.07
2023-02-17T21:00:23.910Z,159.00
2023-02-17T21:02:58.552Z,136.82
2023-02-17T21:05:32.781Z,152.73
2023-02-17T21:08:06.648Z,160.20
2023-02-17T21:10:40.947Z,151.95
2023-02-17T21:13:14.890Z,148.00
2023-02-17T21:15:48.811Z,127.35
2023-02-17T21:18:23.505Z,120.57
2023-02-17T21:20:56.678Z,123.95
2023-02-17T21:23:30.176Z,112.50
2023-02-17T21:26:03.985Z,117.40
2023-02-17T21:28:37.992Z,114.78
2023-02-17T21:31:11.864Z,117.30
2023-02-17T21:33:46.707Z,121.30
2023-02-17T21:36:20.308Z,119.75
2023-02-17T21:38:53.886Z,123.55
2023-02-17T21:41:29.939Z,123.95
2023-02-17T21:44:20.864Z,127.28
2023-02-17T21:46:54.253Z,144.68
2023-02-17T21:49:29.021Z,152.63
2023-02-17T21:52:02.564Z,149.02
2023-02-17T21:54:35.761Z,153.70
2023-02-17T21:59:44.175Z,154.73
2023-02-17T22:02:17.338Z,156.48
2023-02-17T22:04:55.998Z,161.18
2023-02-17T22:07:29.540Z,157.20
2023-02-17T22:10:03.531Z,160.68
2023-02-17T22:12:37.497Z,166.82
2023-02-17T22:17:45.001Z,149.57
2023-02-17T22:20:20.096Z,140.60
2023-02-17T22:22:53.841Z,150.70
2023-02-17T22:25:27.154Z,154.68
2023-02-17T22:28:00.357Z,157.85
2023-02-17T22:30:33.708Z,144.75
2023-02-17T22:33:06.993Z,142.02
2023-02-17T22:35:42.084Z,143.85
2023-02-17T22:38:16.540Z,149.23
2023-02-17T22:40:50.017Z,134.27
2023-02-17T22:43:23.458Z,144.30
2023-02-17T22:46:00.931Z,149.70
2023-02-17T22:48:35.733Z,150.57
2023-02-17T22:51:12.576Z,154.45
2023-02-17T22:53:46.827Z,143.88
2023-02-17T22:56:20.637Z,134.82
2023-02-17T22:58:56.546Z,150.05
2023-02-17T23:01:31.722Z,145.52
2023-02-17T23:04:06.201Z,136.70
2023-02-17T23:06:41.731Z,158.20
2023-02-17T23:09:18.432Z,153.48
2023-02-17T23:11:54.307Z,134.85
2023-02-17T23:14:32.663Z,132.18
2023-02-17T23:17:09.385Z,153.02
2023-02-17T23:19:43.257Z,140.85
2023-02-17T23:22:19.410Z,133.30
2023-02-17T23:24:52.739Z,122.57
2023-02-17T23:27:25.982Z,130.02
2023-02-17T23:29:59.752Z,119.63
2023-02-17T23:32:33.251Z,136.93
2023-02-17T23:35:07.397Z,145.25
2023-02-17T23:37:42.834Z,136.02
2023-02-17T23:40:16.535Z,132.43
2023-02-17T23:42:49.731Z,127.80
2023-02-17T23:45:23.098Z,122.97
2023-02-17T23:47:56.643Z,121.65
2023-02-17T23:50:29.829Z,121.63
2023-02-17T23:53:05.206Z,114.70
2023-02-17T23:55:38.605Z,116.45
2023-02-17T23:58:11.884Z,119.45
